Thunder radar more information blitzortung!


Radar de pluja more information rain snow radar


Visita la nostra xarxa de llocs de meteo:

Template documentation
and downloads

And another site



No particular awareness of the weather is required.    There are no Weather-warnings

Pagina Historial Weather Underground text

Diari Resum May 19, 2017 Unitats:  Imperial    Mètric   Tant
« Previous Dia
SegĂźent Dia »
Diari Setmana Mensual Anual Personalitzada
  Maxima: Minima: Media:
Temperatura: TemperatureC °F 9.5 °F 17.7 °F
Punt de rosada: DewpointC °F 0.8 °F 6.2 °F
Humitat: Humidity % 28 % 49 %
Wind Speed: WindSpeedKMH mph 0.0 mph 7.5 mph
RĂ fegues de vent: WindSpeedGustKMH mph - -
Vent:- - South
Pression baro: PressurehPa in 1015.8 in -
Precipitacions: 1.3 in    
Historical Graphs
 
 
Dades de taula per May 19, 2017
Temps Temperatura Punt de rosada Pression baro Vent Wind Speed RĂ fegues de vent Humitat Rainfall Rate (Hourly)
TemperatureC °F DewpointC °F PressurehPa in Calm     Humidity % HourlyPrecipMM in
00:00 10.0 °F 4.8 °F 1017.8 in NNE 1.6 mph 4.8 mph 70 % 0.0 in
00:04 13.0 °F 7.4 °F 1015.8 in SSW 7.4 mph 7.4 mph 69 % 0.0 in
00:10 9.8 °F 4.6 °F 1017.8 in Calm   3.2 mph 70 % 0.0 in
00:20 10.0 °F 4.8 °F 1017.8 in NNE 1.6 mph 3.2 mph 70 % 0.0 in
00:30 9.9 °F 4.7 °F 1017.8 in NE 1.6 mph 3.2 mph 70 % 0.0 in
00:40 9.9 °F 4.7 °F 1017.8 in NE 1.6 mph 4.8 mph 70 % 0.0 in
00:50 9.8 °F 4.4 °F 1017.8 in SW 1.6 mph 6.4 mph 69 % 0.0 in
01:00 9.6 °F 4.4 °F 1017.8 in Calm   1.6 mph 70 % 0.0 in
01:10 9.6 °F 4.4 °F 1017.8 in Calm   1.6 mph 70 % 0.0 in
01:20 9.5 °F 4.5 °F 1017.8 in Calm   1.6 mph 71 % 0.0 in
01:30 9.5 °F 4.3 °F 1018.8 in NNE 1.6 mph 3.2 mph 70 % 0.0 in
01:40 9.7 °F 4.3 °F 1018.8 in WNW 4.8 mph 6.4 mph 69 % 0.0 in
01:50 9.9 °F 4.7 °F 1018.8 in West 1.6 mph 4.8 mph 70 % 0.0 in
02:00 10.0 °F 4.6 °F 1018.8 in WSW 3.2 mph 3.2 mph 69 % 0.0 in
02:10 10.1 °F 4.7 °F 1019.9 in West 3.2 mph 4.8 mph 69 % 0.0 in
02:20 10.2 °F 4.8 °F 1019.9 in WSW 3.2 mph 3.2 mph 69 % 0.0 in
02:30 10.5 °F 5.1 °F 1018.8 in WSW 1.6 mph 4.8 mph 69 % 0.0 in
02:40 11.0 °F 5.5 °F 1019.9 in SW 1.6 mph 4.8 mph 69 % 0.0 in
02:50 11.0 °F 5.3 °F 1019.9 in SW 3.2 mph 6.4 mph 68 % 0.0 in
03:00 11.3 °F 5.6 °F 1019.9 in SW 3.2 mph 4.8 mph 68 % 0.0 in
03:10 11.6 °F 5.7 °F 1019.9 in WSW 8.0 mph 8.0 mph 67 % 0.0 in
03:20 11.9 °F 5.9 °F 1019.9 in WSW 3.2 mph 11.3 mph 67 % 0.0 in
03:30 11.8 °F 5.7 °F 1019.9 in WSW 9.7 mph 9.7 mph 66 % 0.0 in
03:40 12.0 °F 5.8 °F 1019.9 in WSW 4.8 mph 9.7 mph 66 % 0.0 in
03:50 12.2 °F 5.8 °F 1019.9 in WSW 4.8 mph 12.9 mph 65 % 0.0 in
04:00 12.3 °F 5.9 °F 1019.9 in WSW 4.8 mph 11.3 mph 65 % 0.0 in
04:10 12.8 °F 6.4 °F 1019.9 in WSW 8.0 mph 9.7 mph 65 % 0.0 in
04:20 13.0 °F 6.3 °F 1019.9 in WSW 9.7 mph 9.7 mph 64 % 0.0 in
04:30 13.5 °F 6.8 °F 1019.9 in WSW 4.8 mph 8.0 mph 64 % 0.0 in
04:40 13.6 °F 6.9 °F 1019.9 in WSW 9.7 mph 9.7 mph 64 % 0.0 in
04:50 13.8 °F 6.9 °F 1019.9 in WSW 3.2 mph 8.0 mph 63 % 0.0 in
05:00 14.1 °F 6.9 °F 1020.9 in WSW 4.8 mph 9.7 mph 62 % 0.0 in
05:10 14.4 °F 7.2 °F 1019.9 in WSW 4.8 mph 9.7 mph 62 % 0.0 in
05:20 14.7 °F 7.3 °F 1019.9 in WSW 8.0 mph 9.7 mph 61 % 0.0 in
05:30 15.2 °F 7.7 °F 1020.9 in SW 3.2 mph 6.4 mph 61 % 0.0 in
10:38 15.6 °F 7.6 °F 1020.9 in WSW 7.4 mph 7.4 mph 59 % 0.0 in
10:40 15.7 °F 7.7 °F 1020.9 in West 9.3 mph 9.3 mph 59 % 0.0 in
10:45 15.9 °F 7.9 °F 1020.9 in SW 7.4 mph 7.4 mph 59 % 0.0 in
10:50 16.4 °F 8.1 °F 1020.9 in WNW 3.7 mph 3.7 mph 58 % 0.0 in
10:55 16.2 °F 7.4 °F 1020.9 in WSW 9.3 mph 9.3 mph 56 % 0.0 in
11:00 16.4 °F 7.6 °F 1020.9 in West 12.6 mph 12.6 mph 56 % 0.0 in
11:05 16.7 °F 7.9 °F 1020.9 in WSW 5.6 mph 5.6 mph 56 % 0.0 in
11:10 16.3 °F 6.9 °F 1020.9 in WSW 11.1 mph 11.1 mph 54 % 0.0 in
11:15 16.5 °F 7.2 °F 1020.9 in NNW 9.3 mph 9.3 mph 54 % 0.0 in
11:20 16.6 °F 7.0 °F 1020.9 in West 9.3 mph 9.3 mph 53 % 0.0 in
11:25 16.9 °F 7.3 °F 1020.9 in NW 14.8 mph 14.8 mph 53 % 0.0 in
11:30 17.3 °F 7.3 °F 1020.9 in SW 7.4 mph 7.4 mph 52 % 0.0 in
11:35 17.5 °F 7.6 °F 1020.9 in South 5.6 mph 5.6 mph 52 % 0.0 in
11:40 17.9 °F 7.9 °F 1020.9 in NNE 5.0 mph 5.0 mph 52 % 0.0 in
11:45 18.2 °F 7.9 °F 1020.9 in NW 9.3 mph 9.3 mph 51 % 0.0 in
11:50 18.2 °F 7.9 °F 1020.9 in NNE 12.2 mph 12.2 mph 51 % 0.0 in
11:55 18.2 °F 7.9 °F 1020.9 in ENE 7.4 mph 7.4 mph 51 % 0.0 in
12:00 18.8 °F 8.2 °F 1020.9 in East 5.6 mph 5.6 mph 50 % 0.0 in
12:05 18.3 °F 7.7 °F 1020.9 in South 8.7 mph 8.7 mph 50 % 0.0 in
12:10 18.3 °F 7.7 °F 1020.9 in SSE 5.6 mph 5.6 mph 50 % 0.0 in
12:15 18.9 °F 8.2 °F 1020.9 in SSW 10.3 mph 10.3 mph 50 % 0.0 in
12:20 19.0 °F 8.1 °F 1020.9 in SSW 13.0 mph 13.0 mph 49 % 0.0 in
12:25 19.6 °F 8.6 °F 1020.9 in SW 3.7 mph 3.7 mph 49 % 0.0 in
12:30 19.7 °F 8.4 °F 1020.9 in SSE 13.0 mph 13.0 mph 48 % 0.0 in
12:35 19.3 °F 8.0 °F 1020.9 in SW 7.4 mph 7.4 mph 48 % 0.0 in
12:40 20.0 °F 8.7 °F 1020.9 in SSE 3.7 mph 3.7 mph 48 % 0.0 in
12:45 20.2 °F 8.8 °F 1020.9 in East 4.2 mph 4.2 mph 48 % 0.0 in
12:50 20.4 °F 9.0 °F 1020.9 in South 9.3 mph 9.3 mph 48 % 0.0 in
12:55 20.5 °F 8.8 °F 1019.9 in South 7.9 mph 7.9 mph 47 % 0.0 in
13:00 20.8 °F 9.4 °F 1019.9 in SW 6.1 mph 6.1 mph 48 % 0.0 in
13:05 20.1 °F 8.1 °F 1019.9 in East 3.7 mph 3.7 mph 46 % 0.0 in
13:10 20.2 °F 8.5 °F 1019.9 in SSE 9.3 mph 9.3 mph 47 % 0.0 in
13:15 20.5 °F 8.5 °F 1019.9 in ESE 9.3 mph 9.3 mph 46 % 0.0 in
13:20 20.1 °F 8.1 °F 1019.9 in West 13.7 mph 13.7 mph 46 % 0.0 in
13:25 20.5 °F 8.5 °F 1019.9 in SSW 6.9 mph 6.9 mph 46 % 0.0 in
13:30 21.3 °F 8.9 °F 1019.9 in SSW 5.6 mph 5.6 mph 45 % 0.0 in
13:35 21.0 °F 7.9 °F 1019.9 in West 11.1 mph 11.1 mph 43 % 0.0 in
13:40 21.2 °F 7.8 °F 1018.8 in North 7.4 mph 7.4 mph 42 % 0.0 in
13:45 21.8 °F 7.9 °F 1018.8 in NE 7.4 mph 7.4 mph 41 % 0.0 in
13:50 21.7 °F 7.9 °F 1018.8 in NW 7.9 mph 7.9 mph 41 % 0.0 in
13:55 21.7 °F 7.9 °F 1017.8 in WSW 9.3 mph 9.3 mph 41 % 0.0 in
14:00 21.8 °F 7.6 °F 1017.8 in WSW 7.4 mph 7.4 mph 40 % 0.0 in
14:05 22.0 °F 7.8 °F 1017.8 in WSW 9.3 mph 9.3 mph 40 % 0.0 in
14:10 21.7 °F 6.8 °F 1017.8 in WNW 9.3 mph 9.3 mph 38 % 0.0 in
14:15 21.8 °F 6.4 °F 1017.8 in SW 13.0 mph 13.0 mph 37 % 0.0 in
14:20 22.0 °F 6.6 °F 1017.8 in ESE 11.1 mph 11.1 mph 37 % 0.0 in
14:25 21.9 °F 6.2 °F 1017.8 in NNE 9.3 mph 9.3 mph 36 % 0.0 in
14:30 22.3 °F 6.5 °F 1017.8 in WSW 10.0 mph 10.0 mph 36 % 0.0 in
14:35 22.2 °F 6.4 °F 1017.8 in SW 12.6 mph 12.6 mph 36 % 0.0 in
14:40 22.1 °F 5.9 °F 1017.8 in West 7.4 mph 7.4 mph 35 % 0.0 in
14:45 22.4 °F 6.2 °F 1017.8 in West 13.0 mph 13.0 mph 35 % 0.0 in
14:50 22.5 °F 5.8 °F 1017.8 in East 9.3 mph 9.3 mph 34 % 0.0 in
14:55 22.8 °F 6.6 °F 1017.8 in SSE 9.3 mph 9.3 mph 35 % 0.0 in
15:00 22.8 °F 6.6 °F 1017.8 in ENE 7.4 mph 7.4 mph 35 % 0.0 in
15:05 22.2 °F 5.6 °F 1017.8 in West 9.3 mph 9.3 mph 34 % 0.0 in
15:10 22.7 °F 6.0 °F 1017.8 in West 13.0 mph 13.0 mph 34 % 0.0 in
15:15 22.9 °F 6.2 °F 1017.8 in NNW 9.3 mph 9.3 mph 34 % 0.0 in
15:20 22.6 °F 5.9 °F 1017.8 in WSW 9.3 mph 9.3 mph 34 % 0.0 in
15:25 22.5 °F 5.8 °F 1017.8 in SW 7.4 mph 7.4 mph 34 % 0.0 in
15:30 22.3 °F 6.1 °F 1017.8 in South 9.3 mph 9.3 mph 35 % 0.0 in
15:35 22.2 °F 6.4 °F 1017.8 in South 9.3 mph 9.3 mph 36 % 0.0 in
15:40 22.0 °F 6.2 °F 1017.8 in WSW 11.9 mph 11.9 mph 36 % 0.0 in
15:41 22.0 °F 6.2 °F 1017.8 in SW 11.1 mph 11.1 mph 36 % 0.0 in
15:46 22.3 °F 6.5 °F 1017.8 in SSW 7.2 mph 7.2 mph 36 % 0.0 in
15:51 22.3 °F 6.5 °F 1017.8 in SW 14.8 mph 14.8 mph 36 % 0.0 in
15:56 22.3 °F 6.1 °F 1017.8 in SSW 16.7 mph 16.7 mph 35 % 0.0 in
16:01 22.3 °F 6.5 °F 1017.8 in WSW 9.3 mph 9.5 mph 36 % 0.0 in
16:06 22.5 °F 5.8 °F 1017.8 in South 3.7 mph 3.7 mph 34 % 0.0 in
16:11 22.9 °F 7.1 °F 1017.8 in WSW 12.6 mph 12.6 mph 36 % 0.0 in
16:16 22.5 °F 5.8 °F 1017.8 in ESE 13.0 mph 13.0 mph 34 % 0.0 in
16:21 22.8 °F 6.9 °F 1017.8 in SSW 14.8 mph 14.8 mph 36 % 0.0 in
16:26 22.9 °F 6.6 °F 1016.8 in SW 11.1 mph 11.1 mph 35 % 0.0 in
16:31 23.2 °F 6.4 °F 1016.8 in West 9.5 mph 9.5 mph 34 % 0.0 in
16:36 23.2 °F 6.9 °F 1016.8 in SSW 13.0 mph 13.0 mph 35 % 0.0 in
16:41 23.2 °F 6.4 °F 1016.8 in SW 9.3 mph 9.3 mph 34 % 0.0 in
16:46 23.2 °F 6.4 °F 1016.8 in SW 14.8 mph 14.8 mph 34 % 0.0 in
16:51 23.1 °F 6.4 °F 1016.8 in WSW 9.3 mph 9.3 mph 34 % 0.0 in
16:56 22.9 °F 7.1 °F 1016.8 in SSE 9.3 mph 9.3 mph 36 % 0.0 in
17:01 22.6 °F 6.3 °F 1016.8 in SW 11.1 mph 11.1 mph 35 % 0.0 in
17:06 22.4 °F 5.8 °F 1016.8 in SSE 9.5 mph 9.5 mph 34 % 0.0 in
17:11 22.6 °F 6.3 °F 1016.8 in SSW 5.8 mph 5.8 mph 35 % 0.0 in
17:16 22.5 °F 6.3 °F 1016.8 in SSW 9.3 mph 9.3 mph 35 % 0.0 in
17:21 22.4 °F 6.2 °F 1016.8 in SSW 13.0 mph 13.0 mph 35 % 0.0 in
17:26 22.6 °F 6.3 °F 1016.8 in SW 15.8 mph 15.8 mph 35 % 0.0 in
17:31 22.8 °F 6.6 °F 1016.8 in SW 13.0 mph 13.0 mph 35 % 0.0 in
17:36 22.9 °F 6.6 °F 1016.8 in SSW 18.5 mph 18.5 mph 35 % 0.0 in
17:41 22.5 °F 6.3 °F 1017.8 in SW 10.3 mph 10.3 mph 35 % 0.0 in
17:46 22.4 °F 5.8 °F 1017.8 in SSW 11.1 mph 11.1 mph 34 % 0.0 in
17:51 22.7 °F 6.0 °F 1017.8 in South 9.3 mph 9.3 mph 34 % 0.0 in
17:56 22.9 °F 6.6 °F 1016.8 in WSW 6.4 mph 6.4 mph 35 % 0.0 in
18:01 22.8 °F 6.1 °F 1016.8 in SW 13.0 mph 13.0 mph 34 % 0.0 in
18:02 22.6 °F 5.9 °F 1016.8 in WSW 13.0 mph 13.0 mph 34 % 0.0 in
18:07 22.8 °F 6.6 °F 1016.8 in SW 11.1 mph 11.1 mph 35 % 0.0 in
18:12 22.5 °F 5.8 °F 1016.8 in WSW 11.1 mph 11.1 mph 34 % 0.0 in
18:17 22.5 °F 5.4 °F 1016.8 in SW 7.4 mph 7.4 mph 33 % 0.0 in
18:22 22.6 °F 5.1 °F 1016.8 in NNW 9.3 mph 9.3 mph 32 % 0.0 in
18:27 22.6 °F 4.6 °F 1016.8 in WSW 7.4 mph 7.4 mph 31 % 0.0 in
18:32 22.6 °F 4.6 °F 1016.8 in West 11.1 mph 11.1 mph 31 % 0.0 in
18:37 22.3 °F 3.9 °F 1016.8 in West 7.4 mph 7.4 mph 30 % 0.0 in
18:42 22.2 °F 3.8 °F 1016.8 in WNW 10.0 mph 10.0 mph 30 % 0.0 in
18:47 22.3 °F 3.9 °F 1016.8 in SW 13.0 mph 13.0 mph 30 % 0.0 in
18:52 22.6 °F 4.1 °F 1016.8 in WSW 7.4 mph 7.4 mph 30 % 0.0 in
18:57 22.5 °F 4.1 °F 1017.8 in West 9.3 mph 9.3 mph 30 % 0.0 in
19:02 22.1 °F 3.7 °F 1017.8 in West 7.4 mph 7.4 mph 30 % 0.0 in
19:07 22.0 °F 3.1 °F 1017.8 in SW 13.0 mph 13.0 mph 29 % 0.0 in
19:12 21.9 °F 3.1 °F 1017.8 in North 13.0 mph 13.0 mph 29 % 0.0 in
19:17 21.6 °F 2.8 °F 1017.8 in West 14.8 mph 14.8 mph 29 % 0.0 in
19:22 21.4 °F 2.6 °F 1017.8 in NNW 13.0 mph 13.0 mph 29 % 0.0 in
19:27 21.3 °F 2.6 °F 1017.8 in WSW 9.3 mph 9.3 mph 29 % 0.0 in
19:30 14.6 °F 8.1 °F 1019.9 in Calm   1.6 mph 65 % 0.0 in
19:32 21.3 °F 2.6 °F 1017.8 in SSW 10.3 mph 10.3 mph 29 % 0.0 in
19:37 21.1 °F 1.9 °F 1017.8 in WSW 9.3 mph 9.3 mph 28 % 0.0 in
19:40 14.5 °F 8.2 °F 1019.9 in ENE 3.2 mph 4.8 mph 66 % 0.0 in
19:42 21.1 °F 2.3 °F 1017.8 in WSW 9.3 mph 9.3 mph 29 % 0.0 in
19:47 21.0 °F 2.3 °F 1017.8 in WNW 15.6 mph 15.6 mph 29 % 0.0 in
19:50 14.5 °F 8.4 °F 1019.9 in ENE 1.6 mph 3.2 mph 67 % 0.0 in
19:52 20.9 °F 2.2 °F 1017.8 in West 9.3 mph 9.3 mph 29 % 0.0 in
19:57 20.7 °F 2.0 °F 1017.8 in SW 5.6 mph 5.6 mph 29 % 0.0 in
20:00 14.3 °F 8.1 °F 1020.9 in Calm   1.6 mph 66 % 0.0 in
20:02 20.5 °F 1.8 °F 1017.8 in WSW 11.1 mph 11.1 mph 29 % 0.0 in
20:07 20.4 °F 1.8 °F 1017.8 in West 7.4 mph 7.4 mph 29 % 0.0 in
20:10 14.3 °F 8.4 °F 1019.9 in NE 1.6 mph 3.2 mph 68 % 0.0 in
20:12 20.3 °F 1.7 °F 1017.8 in WSW 3.7 mph 3.7 mph 29 % 0.0 in
20:17 20.1 °F 1.5 °F 1017.8 in WSW 8.7 mph 8.7 mph 29 % 0.0 in
20:20 14.3 °F 8.4 °F 1019.9 in NE 1.6 mph 3.2 mph 68 % 0.0 in
20:22 19.9 °F 1.8 °F 1017.8 in West 5.6 mph 5.6 mph 30 % 0.0 in
20:27 19.8 °F 1.7 °F 1016.8 in WSW 9.3 mph 9.3 mph 30 % 0.0 in
20:30 14.3 °F 8.7 °F 1019.9 in ENE 3.2 mph 4.8 mph 69 % 0.0 in
20:32 19.7 °F 1.6 °F 1016.8 in WSW 5.6 mph 5.6 mph 30 % 0.0 in
20:37 19.5 °F 1.4 °F 1016.8 in WNW 3.7 mph 3.7 mph 30 % 0.0 in
20:40 14.1 °F 8.7 °F 1020.9 in NE 1.6 mph 4.8 mph 70 % 0.0 in
20:42 19.4 °F 1.4 °F 1018.8 in NNW 5.6 mph 5.6 mph 30 % 0.0 in
20:47 19.3 °F 1.3 °F 1018.8 in WSW 5.6 mph 5.6 mph 30 % 0.0 in
20:50 14.1 °F 8.7 °F 1020.9 in NE 4.8 mph 4.8 mph 70 % 0.0 in
20:52 19.1 °F 1.1 °F 1018.8 in Calm     30 % 0.0 in
20:57 19.0 °F 1.0 °F 1017.8 in WNW 3.7 mph 3.7 mph 30 % 0.0 in
21:00 14.2 °F 9.4 °F 1020.9 in ENE 9.7 mph 9.7 mph 73 % 0.0 in
21:02 18.8 °F 0.8 °F 1017.8 in Calm     30 % 0.0 in
21:07 18.5 °F 1.1 °F 1017.8 in NNE 9.3 mph 9.3 mph 31 % 0.0 in
21:10 14.1 °F 9.6 °F 1020.9 in ENE 9.7 mph 11.3 mph 74 % 0.0 in
21:12 18.2 °F 1.7 °F 1017.8 in NE 9.3 mph 9.3 mph 33 % 0.0 in
21:17 17.8 °F 2.1 °F 1017.8 in NE 9.3 mph 9.3 mph 35 % 0.0 in
21:20 14.0 °F 9.6 °F 1020.9 in ENE 4.8 mph 12.9 mph 75 % 0.0 in
21:22 17.5 °F 3.0 °F 1017.8 in NNE 6.9 mph 6.9 mph 38 % 0.0 in
21:27 17.2 °F 3.8 °F 1018.8 in ENE 13.0 mph 13.0 mph 41 % 0.0 in
21:30 14.0 °F 9.4 °F 1020.9 in East 8.0 mph 12.9 mph 74 % 0.0 in
21:32 16.9 °F 4.9 °F 1018.8 in NNE 11.1 mph 11.1 mph 45 % 0.0 in
21:37 16.7 °F 5.0 °F 1018.8 in ENE 7.4 mph 7.4 mph 46 % 0.0 in
21:40 13.9 °F 9.1 °F 1021.9 in East 8.0 mph 12.9 mph 73 % 0.0 in
21:42 16.5 °F 5.7 °F 1019.9 in ENE 11.1 mph 11.1 mph 49 % 0.0 in
21:47 16.3 °F 5.8 °F 1019.9 in North 7.4 mph 7.4 mph 50 % 0.0 in
21:50 13.9 °F 8.9 °F 1021.9 in East 4.8 mph 8.0 mph 72 % 0.0 in
21:52 16.2 °F 6.1 °F 1019.9 in ENE 13.0 mph 13.0 mph 51 % 0.0 in
21:57 16.1 °F 6.2 °F 1019.9 in NNE 7.4 mph 7.4 mph 52 % 0.0 in
22:00 13.8 °F 8.6 °F 1021.9 in ENE 4.8 mph 8.0 mph 71 % 0.0 in
22:02 16.0 °F 6.2 °F 1019.9 in ESE 9.5 mph 9.5 mph 52 % 0.0 in
22:07 16.0 °F 6.4 °F 1019.9 in ENE 7.4 mph 7.4 mph 53 % 0.0 in
22:10 13.7 °F 8.7 °F 1020.9 in ENE 4.8 mph 9.7 mph 72 % 0.0 in
22:12 15.9 °F 6.6 °F 1019.9 in ENE 3.9 mph 3.9 mph 54 % 0.0 in
22:17 15.9 °F 6.6 °F 1019.9 in NE 7.4 mph 7.4 mph 54 % 0.0 in
22:20 13.5 °F 8.6 °F 1020.9 in ENE 3.2 mph 8.0 mph 72 % 0.0 in
22:22 15.8 °F 6.8 °F 1019.9 in East 11.4 mph 11.4 mph 55 % 0.0 in
22:27 15.7 °F 6.9 °F 1019.9 in NNE 9.3 mph 9.3 mph 56 % 0.0 in
22:32 15.6 °F 7.1 °F 1019.9 in ENE 7.4 mph 7.4 mph 57 % 0.0 in
22:37 15.6 °F 7.1 °F 1018.8 in East 7.4 mph 7.4 mph 57 % 0.0 in
22:40 13.2 °F 8.1 °F 1021.9 in NE 4.8 mph 4.8 mph 71 % 0.0 in
22:42 15.6 °F 7.1 °F 1018.8 in NNE 5.6 mph 5.6 mph 57 % 0.0 in
22:47 15.4 °F 7.2 °F 1018.8 in ESE 5.3 mph 5.3 mph 58 % 0.0 in
22:50 13.1 °F 7.9 °F 1021.9 in NE 3.2 mph 4.8 mph 71 % 0.0 in
22:52 15.4 °F 7.4 °F 1019.9 in ENE 7.4 mph 7.4 mph 59 % 0.0 in
22:57 15.3 °F 7.3 °F 1019.9 in ENE 7.4 mph 7.4 mph 59 % 0.0 in
23:00 13.1 °F 7.7 °F 1021.9 in NNE 4.8 mph 4.8 mph 70 % 0.0 in
23:02 15.3 °F 7.3 °F 1019.9 in East 5.6 mph 5.6 mph 59 % 0.0 in
23:07 15.2 °F 7.2 °F 1018.8 in ENE 5.6 mph 5.6 mph 59 % 0.0 in
23:10 12.8 °F 7.4 °F 1021.9 in NNE 1.6 mph 4.8 mph 70 % 0.0 in
23:12 15.1 °F 7.4 °F 1018.8 in ENE 6.1 mph 6.1 mph 60 % 0.0 in
23:17 15.1 °F 7.4 °F 1018.8 in ENE 7.4 mph 7.4 mph 60 % 0.0 in
23:20 12.8 °F 7.4 °F 1021.9 in NE 4.8 mph 4.8 mph 70 % 0.0 in
23:22 15.1 °F 7.6 °F 1019.9 in NNE 11.1 mph 11.1 mph 61 % 0.0 in
23:27 15.0 °F 7.6 °F 1019.9 in NE 5.6 mph 5.6 mph 61 % 0.0 in
23:30 12.7 °F 7.2 °F 1021.9 in North 1.6 mph 3.2 mph 69 % 0.0 in
23:32 15.0 °F 7.8 °F 1019.9 in NNE 7.4 mph 7.4 mph 62 % 0.0 in
23:37 15.0 °F 7.8 °F 1019.9 in ENE 5.6 mph 5.6 mph 62 % 0.0 in
23:40 12.8 °F 7.4 °F 1021.9 in North 1.6 mph 4.8 mph 70 % 0.0 in
23:42 14.9 °F 7.7 °F 1019.9 in NE 7.4 mph 7.4 mph 62 % 0.0 in
23:47 14.9 °F 7.7 °F 1019.9 in NNE 7.4 mph 7.4 mph 62 % 0.0 in
23:50 12.8 °F 7.3 °F 1021.9 in NNW 4.8 mph 8.0 mph 69 % 0.0 in
23:52 14.8 °F 7.8 °F 1019.9 in ENE 5.6 mph 5.6 mph 63 % 0.0 in
23:57 14.8 °F 7.8 °F 1019.9 in East 5.6 mph 5.6 mph 63 % 0.0 in
Meteo Sesrovires
Elogis d' Weather Underground - 1.5 mb

Guio original per  Jim McMurry - jmcmurry@mwt.net Adaptat per a la plantilla per  Wim van der Kuil - Leuven-Template.eu

Trobareu la nostra informacio del temps tambe a:

Weather Underground

AWEKAS